Time;durP1;ratioP1;P1;durP2;ratioP2;P2;SDS_P1;SDS_P2;PMS_P1;PMS_P2;Temp;Humidity;BMP_temperature;BMP_pressure;BME280_temperature;BME280_humidity;BME280_pressure;Samples;Min_cycle;Max_cycle;Signal;HPM_P1;HPM_P2
2023/10/07 00:01:33;;;;;;;4.60;2.70;;;18.90;77.50;;;;;;10492693;28;20028;-58
2023/10/07 00:06:37;;;;;;;6.07;3.22;;;18.80;77.40;;;;;;10493352;28;20021;-58
2023/10/07 00:11:38;;;;;;;3.63;2.60;;;18.90;77.40;;;;;;10492619;28;20043;-58
2023/10/07 00:16:39;;;;;;;4.13;2.92;;;18.80;77.30;;;;;;10492635;28;20047;-58
2023/10/07 00:21:53;;;;;;;4.30;2.95;;;18.90;77.50;;;;;;10492677;28;20033;-58
2023/10/07 00:26:55;;;;;;;5.60;3.22;;;18.80;77.30;;;;;;10492616;28;20103;-58
2023/10/07 00:31:56;;;;;;;4.45;3.70;;;18.80;77.30;;;;;;10491874;28;20036;-58
2023/10/07 00:36:57;;;;;;;3.88;3.20;;;18.80;77.40;;;;;;10492066;28;20460;-58
2023/10/07 00:41:59;;;;;;;4.32;2.72;;;18.80;77.40;;;;;;10491473;28;20041;-58
2023/10/07 00:52:05;;;;;;;3.40;2.53;;;18.80;77.30;;;;;;10474023;28;20040;-58
2023/10/07 00:57:22;;;;;;;3.92;2.55;;;18.80;77.30;;;;;;10491560;28;20089;-58
2023/10/07 01:02:30;;;;;;;5.22;3.00;;;18.80;77.30;;;;;;10481128;28;20028;-58
2023/10/07 01:07:31;;;;;;;3.67;2.50;;;18.80;77.20;;;;;;10474002;28;20111;-58
2023/10/07 01:12:38;;;;;;;5.20;2.55;;;18.80;77.30;;;;;;10491134;28;20033;-58
2023/10/07 01:17:41;;;;;;;6.30;2.70;;;18.80;77.40;;;;;;10491327;28;20064;-58
2023/10/07 01:23:02;;;;;;;3.60;2.88;;;18.80;77.30;;;;;;10490960;28;20740;-58
2023/10/07 01:28:04;;;;;;;4.25;2.88;;;18.80;77.30;;;;;;10490845;28;20028;-58
2023/10/07 01:33:26;;;;;;;4.93;3.05;;;18.80;77.30;;;;;;10480276;28;20035;-58
2023/10/07 01:38:27;;;;;;;5.50;2.80;;;18.80;77.20;;;;;;10472933;28;20043;-58
2023/10/07 01:43:28;;;;;;;5.00;2.75;;;18.80;77.40;;;;;;10472732;28;20031;-57
2023/10/07 01:48:29;;;;;;;4.05;2.88;;;18.80;77.30;;;;;;10490860;28;20032;-58
2023/10/07 01:53:29;;;;;;;4.18;2.42;;;18.80;77.30;;;;;;10490589;28;20032;-59
2023/10/07 01:58:30;;;;;;;3.65;2.60;;;18.80;77.30;;;;;;10463196;28;20460;-58
2023/10/07 02:03:32;;;;;;;4.90;2.80;;;18.80;77.40;;;;;;10488503;28;20033;-58
2023/10/07 02:08:33;;;;;;;5.13;2.97;;;18.80;77.30;;;;;;10490587;28;20041;-58
2023/10/07 02:13:35;;;;;;;5.10;2.80;;;18.80;77.20;;;;;;10489926;28;20051;-58
2023/10/07 02:18:36;;;;;;;3.75;2.70;;;18.80;77.30;;;;;;10493541;28;20040;-58
2023/10/07 02:23:40;;;;;;;3.45;2.60;;;18.80;77.30;;;;;;10497221;28;20025;-58
2023/10/07 02:28:42;;;;;;;5.10;3.03;;;18.80;77.30;;;;;;10497073;28;20035;-58
2023/10/07 02:33:44;;;;;;;5.32;3.42;;;18.80;77.30;;;;;;10478700;28;20028;-58
2023/10/07 02:38:49;;;;;;;3.13;2.30;;;18.80;77.30;;;;;;10478817;28;20115;-59
2023/10/07 02:43:50;;;;;;;2.70;2.03;;;18.80;77.20;;;;;;10496526;28;20033;-59
2023/10/07 02:48:51;;;;;;;4.28;2.50;;;18.70;77.20;;;;;;10496536;28;20024;-58
2023/10/07 02:54:01;;;;;;;4.07;2.30;;;18.80;77.20;;;;;;10496061;28;20032;-58
2023/10/07 02:59:06;;;;;;;4.63;2.85;;;18.80;77.20;;;;;;10486843;28;20028;-58
2023/10/07 03:04:10;;;;;;;5.25;2.53;;;18.80;77.30;;;;;;10494278;28;20025;-58
2023/10/07 03:09:18;;;;;;;3.65;2.47;;;18.80;77.40;;;;;;10496211;28;20028;-58
2023/10/07 03:14:23;;;;;;;5.05;3.28;;;18.80;77.20;;;;;;10495165;28;20514;-58
2023/10/07 03:19:31;;;;;;;4.47;2.90;;;18.80;77.30;;;;;;10494992;28;20024;-58
2023/10/07 03:24:48;;;;;;;5.95;3.08;;;18.80;77.40;;;;;;10494411;28;20020;-59
2023/10/07 03:35:17;;;;;;;4.13;2.78;;;18.80;77.30;;;;;;10479292;28;20040;-58
2023/10/07 03:40:25;;;;;;;3.80;2.47;;;18.80;77.40;;;;;;10476390;28;20032;-58
2023/10/07 03:45:29;;;;;;;5.28;3.50;;;18.70;77.40;;;;;;10493815;28;20040;-58
2023/10/07 03:50:34;;;;;;;6.35;2.75;;;18.80;77.50;;;;;;10493666;28;20780;-58
2023/10/07 03:55:40;;;;;;;5.55;2.58;;;18.80;77.50;;;;;;10491274;28;20020;-59
2023/10/07 04:00:41;;;;;;;4.85;2.75;;;18.80;77.50;;;;;;10500728;28;20503;-58
2023/10/07 04:05:49;;;;;;;3.92;2.65;;;18.80;77.50;;;;;;10504664;28;20113;-58
2023/10/07 04:10:54;;;;;;;4.78;3.15;;;18.80;77.50;;;;;;10495046;28;20028;-58
2023/10/07 04:15:57;;;;;;;4.93;3.30;;;18.70;77.50;;;;;;10494177;28;20503;-57
2023/10/07 04:20:58;;;;;;;4.25;3.00;;;18.80;78.40;;;;;;10492864;28;20044;-57
2023/10/07 04:26:08;;;;;;;4.13;3.03;;;18.90;80.70;;;;;;10492479;28;20357;-58
2023/10/07 04:31:10;;;;;;;4.88;2.95;;;18.90;79.90;;;;;;10498450;28;20028;-58
2023/10/07 04:36:13;;;;;;;5.53;3.22;;;18.90;79.60;;;;;;10491686;28;20055;-58
2023/10/07 04:46:24;;;;;;;4.07;3.13;;;18.90;79.20;;;;;;10492000;28;20036;-58
2023/10/07 04:56:33;;;;;;;4.13;2.72;;;18.90;79.20;;;;;;10490945;28;20033;-57
2023/10/07 05:01:34;;;;;;;5.00;2.83;;;18.90;79.20;;;;;;10490934;28;20043;-58
2023/10/07 05:06:36;;;;;;;3.55;2.40;;;18.90;79.20;;;;;;10478698;28;20047;-57
2023/10/07 05:11:42;;;;;;;5.47;2.63;;;18.90;79.20;;;;;;10487604;28;20678;-58
2023/10/07 05:16:48;;;;;;;6.38;2.63;;;19.00;78.80;;;;;;10489295;28;20087;-57
2023/10/07 05:21:58;;;;;;;8.23;3.17;;;19.20;78.20;;;;;;10489651;28;20124;-57
2023/10/07 05:27:00;;;;;;;8.57;3.10;;;19.30;78.30;;;;;;10488119;28;20040;-56
2023/10/07 05:32:00;;;;;;;7.05;2.95;;;19.30;78.40;;;;;;10490908;28;20352;-57
2023/10/07 05:37:04;;;;;;;9.82;4.80;;;19.20;78.60;;;;;;10480077;28;20036;-57
2023/10/07 05:42:06;;;;;;;8.25;4.22;;;19.20;78.30;;;;;;10485794;28;20122;-57
2023/10/07 05:47:08;;;;;;;14.95;3.10;;;19.10;78.30;;;;;;10490110;28;20036;-58
2023/10/07 05:52:09;;;;;;;15.63;3.60;;;19.20;78.70;;;;;;10488294;28;20021;-56
2023/10/07 05:57:10;;;;;;;8.73;3.75;;;19.20;78.50;;;;;;10497481;28;20043;-58
2023/10/07 06:02:14;;;;;;;11.00;3.85;;;19.20;78.60;;;;;;10487671;28;20027;-57
2023/10/07 06:07:15;;;;;;;18.05;4.70;;;19.20;78.70;;;;;;10497084;28;20025;-58
2023/10/07 06:12:16;;;;;;;12.60;4.05;;;19.20;78.70;;;;;;10479550;28;20036;-58
2023/10/07 06:17:17;;;;;;;16.65;5.50;;;19.20;78.70;;;;;;10496401;28;20086;-57
2023/10/07 06:22:17;;;;;;;15.27;4.88;;;19.10;78.40;;;;;;10479380;28;20023;-57
2023/10/07 06:27:21;;;;;;;13.50;5.38;;;19.10;79.00;;;;;;10477445;28;20021;-58
2023/10/07 06:32:22;;;;;;;15.02;6.28;;;19.10;78.90;;;;;;10478974;28;20395;-58
2023/10/07 06:37:29;;;;;;;11.77;5.20;;;19.10;78.90;;;;;;10467169;28;20025;-57
2023/10/07 06:42:29;;;;;;;17.40;6.30;;;19.00;79.10;;;;;;10477573;28;20529;-58
2023/10/07 06:47:32;;;;;;;16.77;5.30;;;19.00;79.30;;;;;;10481008;28;20036;-57
2023/10/07 06:52:32;;;;;;;14.70;5.35;;;19.00;79.30;;;;;;10485968;28;20046;-56
2023/10/07 06:57:34;;;;;;;16.52;6.45;;;19.10;79.40;;;;;;10489893;28;20028;-58
2023/10/07 07:02:35;;;;;;;18.15;5.68;;;19.00;79.20;;;;;;10462567;28;20136;-58
2023/10/07 07:07:37;;;;;;;26.75;7.38;;;19.10;79.40;;;;;;10483843;28;20108;-58
2023/10/07 07:12:38;;;;;;;38.55;8.10;;;19.10;79.50;;;;;;10481875;28;20115;-58
2023/10/07 07:17:43;;;;;;;43.40;9.90;;;19.10;79.60;;;;;;10494325;28;20256;-58
2023/10/07 07:22:49;;;;;;;27.17;7.28;;;19.10;79.60;;;;;;10495111;28;20082;-58
2023/10/07 07:27:52;;;;;;;34.50;8.60;;;19.10;79.30;;;;;;10476352;28;20040;-58
2023/10/07 07:32:55;;;;;;;24.10;7.25;;;19.10;79.30;;;;;;10484055;28;20152;-58
2023/10/07 07:38:02;;;;;;;29.67;7.57;;;19.10;79.50;;;;;;10489978;28;20028;-58
2023/10/07 07:43:07;;;;;;;33.75;8.30;;;19.00;79.20;;;;;;10492927;28;20033;-59
2023/10/07 07:48:08;;;;;;;25.52;8.32;;;19.00;79.30;;;;;;10492142;28;20027;-56
2023/10/07 07:53:09;;;;;;;21.80;6.43;;;19.10;79.50;;;;;;10492634;28;20039;-57
2023/10/07 07:58:11;;;;;;;27.95;7.03;;;19.10;79.20;;;;;;10492683;28;20107;-57
2023/10/07 08:03:12;;;;;;;20.10;7.28;;;19.10;79.30;;;;;;10456939;28;20066;-58
2023/10/07 08:08:24;;;;;;;19.23;5.75;;;19.10;79.40;;;;;;10492271;28;20549;-58
2023/10/07 08:13:27;;;;;;;22.80;7.22;;;19.00;79.50;;;;;;10491850;28;20033;-58
2023/10/07 08:18:30;;;;;;;16.48;5.57;;;19.00;79.40;;;;;;10482532;28;20051;-59
2023/10/07 08:23:35;;;;;;;17.25;6.40;;;19.00;79.90;;;;;;10492359;28;20028;-58
2023/10/07 08:34:09;;;;;;;15.35;6.47;;;19.00;79.00;;;;;;10464536;28;20099;-58
2023/10/07 08:39:10;;;;;;;27.70;6.72;;;19.10;79.00;;;;;;10490568;28;20511;-57
2023/10/07 08:44:17;;;;;;;15.80;5.35;;;19.10;78.90;;;;;;10473573;28;20468;-58
2023/10/07 08:49:27;;;;;;;16.67;5.82;;;19.20;79.30;;;;;;10489948;28;20021;-59
2023/10/07 08:54:37;;;;;;;21.55;5.55;;;19.30;79.10;;;;;;10489646;28;20032;-58
2023/10/07 08:59:40;;;;;;;22.40;5.70;;;19.40;78.90;;;;;;10489171;28;20036;-59
2023/10/07 09:04:41;;;;;;;21.20;6.82;;;19.40;78.70;;;;;;10490684;28;20029;-59
2023/10/07 09:09:45;;;;;;;19.65;7.03;;;19.30;78.90;;;;;;10490308;28;20047;-59
2023/10/07 09:14:55;;;;;;;12.02;5.72;;;19.30;79.00;;;;;;10472063;28;20090;-59
2023/10/07 09:20:00;;;;;;;24.25;6.95;;;19.20;79.10;;;;;;10490309;28;20056;-59
2023/10/07 09:25:16;;;;;;;18.20;5.88;;;19.20;79.00;;;;;;10491119;28;20031;-59
2023/10/07 09:35:37;;;;;;;18.35;6.63;;;19.30;79.00;;;;;;10498636;28;20454;-59
2023/10/07 09:41:24;;;;;;;14.85;6.50;;;19.30;78.90;;;;;;10479977;28;20033;-58
2023/10/07 09:45:59;;;;;;;13.73;5.93;;;19.30;78.90;;;;;;10483092;28;20039;-60
2023/10/07 09:51:02;;;;;;;11.82;6.13;;;19.30;78.80;;;;;;10497533;28;20044;-59
2023/10/07 09:56:46;;;;;;;12.23;5.93;;;19.40;78.80;;;;;;10479600;28;20678;-59
2023/10/07 10:02:32;;;;;;;11.90;5.85;;;19.40;78.80;;;;;;10488525;28;20492;-59
2023/10/07 10:08:19;;;;;;;9.10;4.85;;;19.40;78.80;;;;;;10488877;28;20040;-59
2023/10/07 10:19:12;;;;;;;12.25;4.82;;;19.40;78.60;;;;;;10496642;28;20506;-59
2023/10/07 10:24:14;;;;;;;11.10;4.57;;;19.40;78.70;;;;;;10481054;28;20036;-59
2023/10/07 10:29:25;;;;;;;10.85;5.18;;;19.40;78.60;;;;;;10477541;28;20491;-59
2023/10/07 10:34:26;;;;;;;12.32;5.50;;;19.50;78.60;;;;;;10495920;28;20058;-59
2023/10/07 10:39:31;;;;;;;8.13;4.93;;;19.50;78.40;;;;;;10494973;28;20024;-59
2023/10/07 10:44:39;;;;;;;6.20;4.25;;;19.50;78.50;;;;;;10495960;28;20107;-59
2023/10/07 10:49:43;;;;;;;6.97;4.57;;;19.50;79.10;;;;;;10495221;28;20114;-59
2023/10/07 10:54:44;;;;;;;8.00;4.43;;;19.60;78.50;;;;;;10495266;28;20044;-59
2023/10/07 10:59:48;;;;;;;7.20;4.32;;;19.60;78.40;;;;;;10494243;28;20021;-58
2023/10/07 11:04:54;;;;;;;9.30;5.03;;;19.60;78.30;;;;;;10495071;28;20024;-59
2023/10/07 11:09:55;;;;;;;8.63;4.88;;;19.50;78.90;;;;;;10494066;28;20054;-58
2023/10/07 11:15:13;;;;;;;6.80;4.55;;;19.50;78.30;;;;;;10476090;28;20040;-59
2023/10/07 11:20:19;;;;;;;8.25;5.63;;;19.50;78.40;;;;;;10493791;28;20069;-59
2023/10/07 11:25:24;;;;;;;8.60;4.50;;;19.40;78.40;;;;;;10494536;28;20033;-59
2023/10/07 11:30:25;;;;;;;7.72;4.95;;;19.50;78.50;;;;;;10493041;28;20464;-59
2023/10/07 11:35:29;;;;;;;11.98;5.28;;;19.50;78.50;;;;;;10494015;28;20037;-59
2023/10/07 11:40:31;;;;;;;6.18;4.22;;;19.50;78.40;;;;;;10492445;28;20395;-59
2023/10/07 11:45:32;;;;;;;8.27;4.22;;;19.50;78.30;;;;;;10475720;28;20024;-59
2023/10/07 11:50:35;;;;;;;7.93;4.63;;;19.50;78.30;;;;;;10491521;28;20040;-60
2023/10/07 11:55:36;;;;;;;4.60;3.85;;;19.50;78.30;;;;;;10492989;28;20039;-58
2023/10/07 12:00:37;;;;;;;5.40;4.05;;;19.50;78.30;;;;;;10492424;28;20119;-59
2023/10/07 12:05:40;;;;;;;7.57;4.38;;;19.50;78.30;;;;;;10492337;28;20085;-59
2023/10/07 12:10:40;;;;;;;6.90;4.18;;;19.50;78.30;;;;;;10491580;28;20024;-59
2023/10/07 12:15:42;;;;;;;6.45;4.65;;;19.50;78.30;;;;;;10491390;28;20503;-59
2023/10/07 12:20:43;;;;;;;7.13;3.92;;;19.50;78.40;;;;;;10491845;28;20035;-59
2023/10/07 12:25:44;;;;;;;7.88;4.88;;;19.50;78.30;;;;;;10491857;28;20033;-59
2023/10/07 12:30:49;;;;;;;6.45;4.47;;;19.50;78.30;;;;;;10490746;28;20028;-59
2023/10/07 12:35:49;;;;;;;6.85;4.40;;;19.50;78.30;;;;;;10491471;28;20040;-59
2023/10/07 12:40:50;;;;;;;6.28;3.90;;;19.50;78.30;;;;;;10490324;28;20029;-59
2023/10/07 12:45:51;;;;;;;9.65;5.03;;;19.50;78.30;;;;;;10491116;28;20647;-59
2023/10/07 12:50:51;;;;;;;7.72;4.60;;;19.50;78.30;;;;;;10490754;28;20090;-59
2023/10/07 12:55:52;;;;;;;5.97;4.18;;;19.50;78.30;;;;;;10491145;28;20042;-60
2023/10/07 13:00:55;;;;;;;5.72;4.13;;;19.50;78.30;;;;;;10489666;28;20032;-59
2023/10/07 13:06:01;;;;;;;8.73;5.07;;;19.40;78.20;;;;;;10490365;28;20353;-59
2023/10/07 13:11:02;;;;;;;7.30;4.00;;;19.40;78.20;;;;;;10490520;28;20032;-60
2023/10/07 13:16:10;;;;;;;6.70;4.40;;;19.50;78.30;;;;;;10490018;28;20045;-59
2023/10/07 13:21:15;;;;;;;5.23;3.70;;;19.50;78.20;;;;;;10489415;28;20411;-58
2023/10/07 13:26:16;;;;;;;5.38;4.03;;;19.40;78.20;;;;;;10490368;28;20551;-59
2023/10/07 13:31:17;;;;;;;5.88;3.78;;;19.40;78.20;;;;;;10489970;28;20028;-60
2023/10/07 13:36:18;;;;;;;6.57;4.53;;;19.40;78.30;;;;;;10490272;28;20090;-59
2023/10/07 13:41:20;;;;;;;5.35;3.75;;;19.40;78.20;;;;;;10488943;28;20070;-59
2023/10/07 13:46:21;;;;;;;5.70;3.65;;;19.40;78.30;;;;;;10490194;28;20033;-59
2023/10/07 13:51:22;;;;;;;5.32;3.90;;;19.40;78.20;;;;;;10489500;28;20094;-59
2023/10/07 13:56:43;;;;;;;8.90;4.00;;;19.40;78.20;;;;;;10489655;28;20031;-59
2023/10/07 14:01:46;;;;;;;7.00;4.07;;;19.40;78.20;;;;;;10488726;28;20451;-58
2023/10/07 14:06:54;;;;;;;5.28;3.97;;;19.40;78.20;;;;;;10489099;28;20028;-59
2023/10/07 14:11:55;;;;;;;6.82;3.90;;;19.40;78.10;;;;;;10488701;28;20024;-59
2023/10/07 14:16:58;;;;;;;6.85;3.90;;;19.40;78.20;;;;;;10496186;28;20063;-59
2023/10/07 14:21:59;;;;;;;4.45;3.15;;;19.40;78.20;;;;;;10495620;28;20462;-59
2023/10/07 14:26:59;;;;;;;8.45;4.00;;;19.40;78.20;;;;;;10496980;28;20024;-59
2023/10/07 14:32:00;;;;;;;6.28;4.13;;;19.40;78.10;;;;;;10495483;28;20029;-59
2023/10/07 14:37:01;;;;;;;8.00;4.05;;;19.40;78.20;;;;;;10495715;28;20040;-58
2023/10/07 14:42:03;;;;;;;7.85;4.28;;;19.40;78.10;;;;;;10495234;28;20036;-59
2023/10/07 14:47:06;;;;;;;5.35;4.35;;;19.40;78.10;;;;;;10495977;28;20031;-59
2023/10/07 14:52:07;;;;;;;6.63;4.18;;;19.40;78.20;;;;;;10495391;28;20403;-59
2023/10/07 14:57:07;;;;;;;6.72;4.22;;;19.40;78.10;;;;;;10495136;28;20028;-59
2023/10/07 15:02:08;;;;;;;5.68;3.80;;;19.40;78.10;;;;;;10495145;28;20025;-59
2023/10/07 15:07:09;;;;;;;5.95;3.78;;;19.40;78.10;;;;;;10494619;28;20243;-59
2023/10/07 15:12:09;;;;;;;8.02;4.13;;;19.40;78.10;;;;;;10494571;28;20042;-59
2023/10/07 15:17:15;;;;;;;6.63;4.10;;;19.40;78.10;;;;;;10494518;28;20044;-59
2023/10/07 15:22:18;;;;;;;6.95;4.30;;;19.40;78.10;;;;;;10476214;28;20111;-59
2023/10/07 15:27:18;;;;;;;5.53;4.20;;;19.40;78.10;;;;;;10476390;28;20090;-59
2023/10/07 15:32:19;;;;;;;5.88;3.75;;;19.40;78.10;;;;;;10493248;28;20034;-59
2023/10/07 15:37:20;;;;;;;7.13;4.03;;;19.40;78.10;;;;;;10493692;28;20032;-58
2023/10/07 15:42:20;;;;;;;6.70;4.13;;;19.40;78.10;;;;;;10493034;28;20025;-59
2023/10/07 15:47:21;;;;;;;5.35;4.03;;;19.40;78.10;;;;;;10493160;28;20072;-59
2023/10/07 15:52:22;;;;;;;8.15;4.63;;;19.40;78.10;;;;;;10492214;28;20519;-59
2023/10/07 15:57:24;;;;;;;7.20;3.78;;;19.30;78.00;;;;;;10492895;28;20040;-59
2023/10/07 16:02:25;;;;;;;6.25;3.88;;;19.30;78.10;;;;;;10491926;28;20183;-59
2023/10/07 16:07:25;;;;;;;5.13;3.25;;;19.40;78.10;;;;;;10491958;28;20025;-59
2023/10/07 16:12:27;;;;;;;5.47;3.60;;;19.40;78.10;;;;;;10490568;28;20028;-59
2023/10/07 16:17:30;;;;;;;6.57;4.43;;;19.30;78.10;;;;;;10491313;28;20052;-59
2023/10/07 16:22:31;;;;;;;5.43;3.70;;;19.30;78.10;;;;;;10491290;28;20033;-58
2023/10/07 16:27:32;;;;;;;7.80;4.85;;;19.30;78.00;;;;;;10492008;28;20024;-59
2023/10/07 16:32:34;;;;;;;6.18;3.88;;;19.30;78.10;;;;;;10490868;28;20048;-59
2023/10/07 16:37:39;;;;;;;6.00;3.60;;;19.30;78.10;;;;;;10490429;28;20020;-59
2023/10/07 16:42:41;;;;;;;4.47;3.58;;;19.30;78.10;;;;;;10490667;28;20155;-59
2023/10/07 16:47:41;;;;;;;5.85;4.00;;;19.30;78.10;;;;;;10489631;28;20016;-59
2023/10/07 16:52:42;;;;;;;6.20;4.40;;;19.30;78.00;;;;;;10490357;28;20040;-59
2023/10/07 16:57:43;;;;;;;6.00;3.72;;;19.30;78.00;;;;;;10491219;28;20090;-59
2023/10/07 17:02:44;;;;;;;7.30;3.92;;;19.30;78.00;;;;;;10489871;28;20033;-59
2023/10/07 17:07:46;;;;;;;5.05;3.28;;;19.30;78.00;;;;;;10490575;28;20021;-59
2023/10/07 17:12:46;;;;;;;6.82;3.80;;;19.30;78.00;;;;;;10490159;28;20029;-59
2023/10/07 17:17:47;;;;;;;5.15;3.58;;;19.30;78.00;;;;;;10490293;28;20059;-59
2023/10/07 17:22:48;;;;;;;6.75;3.45;;;19.30;78.00;;;;;;10489582;28;20033;-59
2023/10/07 17:27:49;;;;;;;7.55;4.53;;;19.30;78.00;;;;;;10490315;28;20028;-58
2023/10/07 17:32:49;;;;;;;5.05;3.30;;;19.30;78.10;;;;;;10490615;28;20427;-59
2023/10/07 17:37:50;;;;;;;5.53;4.05;;;19.20;78.00;;;;;;10488722;28;20033;-58
2023/10/07 17:42:51;;;;;;;5.95;3.25;;;19.30;78.00;;;;;;10487180;28;20032;-58
2023/10/07 17:47:52;;;;;;;9.27;4.47;;;19.20;78.00;;;;;;10470978;28;20036;-59
2023/10/07 17:52:53;;;;;;;6.45;3.63;;;19.20;78.00;;;;;;10495564;28;20043;-59
2023/10/07 17:57:53;;;;;;;8.52;4.13;;;19.20;78.00;;;;;;10495931;28;20025;-59
2023/10/07 18:02:57;;;;;;;6.95;4.05;;;19.20;78.00;;;;;;10494654;28;20025;-59
2023/10/07 18:07:57;;;;;;;6.28;3.72;;;19.20;77.90;;;;;;10494985;28;20471;-59
2023/10/07 18:13:00;;;;;;;7.15;3.58;;;19.20;77.90;;;;;;10495298;28;20093;-59
2023/10/07 18:18:01;;;;;;;5.28;2.95;;;19.20;77.90;;;;;;10494767;28;20741;-59
2023/10/07 18:23:03;;;;;;;6.63;4.05;;;19.20;77.90;;;;;;10494760;28;20086;-59
2023/10/07 18:28:04;;;;;;;6.10;3.40;;;19.20;77.90;;;;;;10494071;28;20532;-59
2023/10/07 18:33:05;;;;;;;4.50;3.40;;;19.20;77.90;;;;;;10494286;28;20121;-59
2023/10/07 18:38:06;;;;;;;5.47;3.58;;;19.20;77.90;;;;;;10475859;28;20029;-59
2023/10/07 18:43:07;;;;;;;4.97;3.90;;;19.20;77.90;;;;;;10493819;28;20070;-59
2023/10/07 18:48:08;;;;;;;6.07;3.60;;;19.20;78.00;;;;;;10493236;28;20372;-59
2023/10/07 18:53:08;;;;;;;4.88;3.55;;;19.20;77.90;;;;;;10475750;28;20043;-59
2023/10/07 18:58:09;;;;;;;4.85;3.75;;;19.20;77.80;;;;;;10493003;28;20040;-59
2023/10/07 19:03:10;;;;;;;6.53;3.67;;;19.20;77.90;;;;;;10492907;28;20617;-59
2023/10/07 19:08:11;;;;;;;5.00;3.70;;;19.20;77.90;;;;;;10492304;28;20031;-59
2023/10/07 19:13:12;;;;;;;5.43;3.42;;;19.20;77.90;;;;;;10492957;28;20325;-59
2023/10/07 19:18:16;;;;;;;7.32;3.35;;;19.20;77.80;;;;;;10492010;28;20044;-59
2023/10/07 19:23:18;;;;;;;6.25;3.50;;;19.20;77.80;;;;;;10492324;28;20099;-60
2023/10/07 19:28:19;;;;;;;5.88;3.47;;;19.20;77.70;;;;;;10491805;28;20021;-59
2023/10/07 19:33:19;;;;;;;5.45;3.72;;;19.20;77.80;;;;;;10491869;28;20123;-58
2023/10/07 19:38:20;;;;;;;4.50;3.47;;;19.20;77.80;;;;;;10491102;28;20028;-60
2023/10/07 19:43:21;;;;;;;4.47;3.63;;;19.20;77.80;;;;;;10492681;28;20408;-60
2023/10/07 19:48:22;;;;;;;5.28;3.20;;;19.20;77.70;;;;;;10493389;28;20039;-59
2023/10/07 19:53:23;;;;;;;4.80;3.08;;;19.20;77.70;;;;;;10493795;28;20035;-59
2023/10/07 19:58:25;;;;;;;7.10;3.53;;;19.20;77.70;;;;;;10468137;28;20032;-59
2023/10/07 20:03:27;;;;;;;5.85;3.80;;;19.20;77.50;;;;;;10479156;28;20064;-58
2023/10/07 20:08:29;;;;;;;5.30;3.22;;;19.20;77.50;;;;;;10491091;28;20029;-59
2023/10/07 20:13:30;;;;;;;6.25;3.45;;;19.20;77.60;;;;;;10489888;28;20119;-59
2023/10/07 20:18:31;;;;;;;4.95;3.83;;;19.20;77.60;;;;;;10491102;28;20036;-59
2023/10/07 20:23:31;;;;;;;5.32;3.65;;;19.20;77.60;;;;;;10491086;28;20033;-58
2023/10/07 20:28:33;;;;;;;8.00;3.40;;;19.20;77.60;;;;;;10469684;28;20036;-58
2023/10/07 20:33:34;;;;;;;4.97;3.58;;;19.20;77.60;;;;;;10490509;28;20599;-59
2023/10/07 20:38:35;;;;;;;6.85;4.20;;;19.20;77.60;;;;;;10491755;28;20434;-58
2023/10/07 20:43:35;;;;;;;6.32;3.53;;;19.20;77.60;;;;;;10492451;28;20079;-59
2023/10/07 20:48:39;;;;;;;5.90;3.90;;;19.20;77.60;;;;;;10491467;28;20090;-58
2023/10/07 20:53:44;;;;;;;6.13;3.85;;;19.20;78.20;;;;;;10492121;28;20067;-59
2023/10/07 20:58:45;;;;;;;6.53;3.55;;;19.20;77.60;;;;;;10491247;28;20032;-59
2023/10/07 21:03:48;;;;;;;5.32;3.53;;;19.20;77.60;;;;;;10473860;28;20036;-59
2023/10/07 21:08:51;;;;;;;5.53;3.63;;;19.20;77.50;;;;;;10473419;28;20040;-59
2023/10/07 21:13:57;;;;;;;4.60;3.40;;;19.20;77.60;;;;;;10491286;28;20036;-60
2023/10/07 21:19:00;;;;;;;7.20;3.75;;;19.20;77.50;;;;;;10472742;28;20047;-58
2023/10/07 21:24:01;;;;;;;5.47;3.53;;;19.20;77.60;;;;;;10499041;28;20054;-59
2023/10/07 21:29:03;;;;;;;6.60;3.78;;;19.20;77.60;;;;;;10504715;28;20488;-58
2023/10/07 21:34:08;;;;;;;5.93;3.70;;;19.20;77.50;;;;;;10505054;28;20816;-60
2023/10/07 21:39:11;;;;;;;5.25;3.30;;;19.20;77.30;;;;;;10504129;28;20377;-59
2023/10/07 21:44:12;;;;;;;4.57;3.25;;;19.20;77.30;;;;;;10504512;28;20071;-59
2023/10/07 21:49:13;;;;;;;5.63;3.75;;;19.20;77.30;;;;;;10504467;28;20031;-58
2023/10/07 21:54:13;;;;;;;6.57;3.22;;;19.20;77.30;;;;;;10504828;28;20403;-59
2023/10/07 21:59:17;;;;;;;6.72;4.15;;;19.20;77.30;;;;;;10485812;28;20039;-59
2023/10/07 22:04:21;;;;;;;6.03;3.67;;;19.20;77.30;;;;;;10503931;28;20028;-59
2023/10/07 22:09:28;;;;;;;4.07;3.30;;;19.20;77.30;;;;;;10486107;28;20081;-59
2023/10/07 22:14:30;;;;;;;5.47;3.17;;;19.20;77.30;;;;;;10487152;28;20079;-59
2023/10/07 22:19:32;;;;;;;7.22;3.75;;;19.20;77.30;;;;;;10503609;28;20059;-59
2023/10/07 22:24:32;;;;;;;5.45;3.58;;;19.20;77.30;;;;;;10503734;28;20442;-58
2023/10/07 22:29:33;;;;;;;5.45;3.67;;;19.20;77.30;;;;;;10503369;28;20032;-59
2023/10/07 22:34:35;;;;;;;5.03;3.22;;;19.20;77.30;;;;;;10500569;28;20420;-59
2023/10/07 22:39:37;;;;;;;5.70;3.20;;;19.20;77.30;;;;;;10496523;28;20039;-58
2023/10/07 22:44:38;;;;;;;6.25;3.97;;;19.20;77.40;;;;;;10496922;28;20475;-58
2023/10/07 22:49:41;;;;;;;5.95;3.53;;;19.20;77.40;;;;;;10496106;28;20060;-59
2023/10/07 22:54:50;;;;;;;6.28;3.40;;;19.20;77.40;;;;;;10496507;28;20040;-60
2023/10/07 22:59:50;;;;;;;8.05;4.65;;;19.20;77.40;;;;;;10478724;28;20145;-58
2023/10/07 23:04:51;;;;;;;4.43;2.67;;;19.20;77.40;;;;;;10477696;28;20054;-59
2023/10/07 23:09:58;;;;;;;5.75;3.17;;;19.20;77.50;;;;;;10495192;28;20032;-59
2023/10/07 23:15:07;;;;;;;6.68;3.15;;;19.20;77.50;;;;;;10496137;28;20036;-59
2023/10/07 23:20:37;;;;;;;;;;;19.10;77.50;;;;;;10495986;28;20028;-58
2023/10/07 23:25:57;;;;;;;6.47;3.65;;;19.20;77.50;;;;;;10495415;28;19955;-58
2023/10/07 23:36:17;;;;;;;6.13;2.70;;;19.20;77.50;;;;;;10494591;28;20169;-58
2023/10/07 23:41:25;;;;;;;5.57;3.63;;;19.20;77.50;;;;;;10494222;28;20025;-58
2023/10/07 23:46:28;;;;;;;5.45;3.35;;;19.20;77.50;;;;;;10492835;28;20124;-59
2023/10/07 23:51:32;;;;;;;5.90;3.30;;;19.20;77.50;;;;;;10493446;28;20029;-59
2023/10/07 23:56:33;;;;;;;5.55;3.53;;;19.20;77.50;;;;;;10493812;28;20392;-59
